Terminal Aerodrome Forecast
Issued by NWS

Home | Current Version | Previous Version | Text Only | Print | Product List | Glossary On
Versions: 1 2 3 4 5 6 7 8 9 10 11 12 13 14 15
000
FTUS46 KSEW 252300
TAFCLM
TAF
KCLM 252335Z 2600/2624 32006KT P6SM SCT025 SCT035 BKN045
     FM260800 27006KT P6SM OVC015
     FM261400 VRB03KT P6SM BKN009
     FM261800 34005KT P6SM BKN018 BKN030
     FM262100 33006KT P6SM SCT030 BKN045=

USA.gov is the U.S. government's official web portal to all federal, state and local government web resources and services.